createdAt,value
2022-08-12T00:00:04.989Z,1020.67
2022-08-12T00:01:04.971Z,1020.63
2022-08-12T00:02:05.889Z,1020.67
2022-08-12T00:03:04.956Z,1020.65
2022-08-12T00:04:04.940Z,1020.65
2022-08-12T00:05:04.910Z,1020.63
2022-08-12T00:06:05.307Z,1020.63
2022-08-12T00:07:04.875Z,1020.62
2022-08-12T00:08:04.879Z,1020.65
2022-08-12T00:09:04.867Z,1020.67
2022-08-12T00:10:04.902Z,1020.61
2022-08-12T00:11:09.716Z,1020.68
2022-08-12T00:12:06.514Z,1020.68
2022-08-12T00:13:04.810Z,1020.62
2022-08-12T00:14:04.820Z,1020.62
2022-08-12T00:15:04.777Z,1020.62
2022-08-12T00:16:04.779Z,1020.63
2022-08-12T00:17:04.753Z,1020.60
2022-08-12T00:18:04.738Z,1020.57
2022-08-12T00:19:04.825Z,1020.58
2022-08-12T00:20:04.731Z,1020.62
2022-08-12T00:21:04.717Z,1020.54
2022-08-12T00:22:04.751Z,1020.62
2022-08-12T00:23:04.667Z,1020.63
2022-08-12T00:24:04.690Z,1020.59
2022-08-12T00:25:04.659Z,1020.62
2022-08-12T00:26:23.416Z,1020.56
2022-08-12T00:27:05.609Z,1020.60
2022-08-12T00:28:04.598Z,1020.61
2022-08-12T00:29:04.594Z,1020.54
2022-08-12T00:30:04.683Z,1020.56
2022-08-12T00:31:05.355Z,1020.54
2022-08-12T00:32:04.636Z,1020.58
2022-08-12T00:33:04.534Z,1020.55
2022-08-12T00:34:05.260Z,1020.55
2022-08-12T00:35:08.650Z,1020.52
2022-08-12T00:36:04.495Z,1020.63
2022-08-12T00:37:11.321Z,1020.60
2022-08-12T00:38:05.517Z,1020.58
2022-08-12T00:39:04.455Z,1020.58
2022-08-12T00:40:04.761Z,1020.61
2022-08-12T00:41:05.431Z,1020.65
2022-08-12T00:42:04.420Z,1020.61
2022-08-12T00:43:04.464Z,1020.60
2022-08-12T00:44:04.400Z,1020.60
2022-08-12T00:45:04.400Z,1020.61
2022-08-12T00:46:04.407Z,1020.59
2022-08-12T00:47:04.619Z,1020.57
2022-08-12T00:48:04.330Z,1020.61
2022-08-12T00:49:04.395Z,1020.59
2022-08-12T00:50:04.340Z,1020.58
2022-08-12T00:51:04.305Z,1020.62
2022-08-12T00:52:04.282Z,1020.62
2022-08-12T00:53:04.284Z,1020.60
2022-08-12T00:54:04.255Z,1020.57
2022-08-12T00:55:04.336Z,1020.64
2022-08-12T00:56:04.231Z,1020.59
2022-08-12T00:57:04.227Z,1020.63
2022-08-12T00:58:04.200Z,1020.64
2022-08-12T00:59:04.471Z,1020.63
2022-08-12T01:00:04.231Z,1020.54
2022-08-12T01:01:04.222Z,1020.59
2022-08-12T01:02:11.903Z,1020.61
2022-08-12T01:03:05.166Z,1020.60
2022-08-12T01:04:04.128Z,1020.59
2022-08-12T01:05:04.187Z,1020.59
2022-08-12T01:06:04.183Z,1020.60
2022-08-12T01:07:04.096Z,1020.61
2022-08-12T01:08:04.076Z,1020.58
2022-08-12T01:09:04.057Z,1020.53
2022-08-12T01:10:04.062Z,1020.64
2022-08-12T01:11:04.048Z,1020.54
2022-08-12T01:12:04.008Z,1020.60
2022-08-12T01:13:07.445Z,1020.54
2022-08-12T01:14:05.002Z,1020.60
2022-08-12T01:15:03.978Z,1020.53
2022-08-12T01:16:03.977Z,1020.56
2022-08-12T01:17:04.003Z,1020.63
2022-08-12T01:18:03.937Z,1020.53
2022-08-12T01:19:03.945Z,1020.49
2022-08-12T01:20:03.919Z,1020.53
2022-08-12T01:21:03.944Z,1020.53
2022-08-12T01:22:03.928Z,1020.54
2022-08-12T01:23:04.152Z,1020.53
2022-08-12T01:24:29.924Z,1020.58
2022-08-12T01:25:04.845Z,1020.61
2022-08-12T01:26:03.835Z,1020.52
2022-08-12T01:27:07.641Z,1020.61
2022-08-12T01:28:03.811Z,1020.58
2022-08-12T01:29:03.793Z,1020.57
2022-08-12T01:30:03.791Z,1020.62
2022-08-12T01:31:03.774Z,1020.54
2022-08-12T01:32:04.935Z,1020.56
2022-08-12T01:33:03.734Z,1020.60
2022-08-12T01:34:03.772Z,1020.55
2022-08-12T01:35:03.713Z,1020.59
2022-08-12T01:36:08.364Z,1020.53
2022-08-12T01:37:04.724Z,1020.59
2022-08-12T01:38:03.694Z,1020.57
2022-08-12T01:39:03.680Z,1020.50
2022-08-12T01:40:31.378Z,1020.56
2022-08-12T01:41:04.783Z,1020.49
2022-08-12T01:42:03.634Z,1020.57
2022-08-12T01:43:03.603Z,1020.45
2022-08-12T01:44:06.324Z,1020.54
2022-08-12T01:45:03.584Z,1020.48
2022-08-12T01:46:03.572Z,1020.47
2022-08-12T01:47:03.611Z,1020.48
2022-08-12T01:48:03.889Z,1020.45
2022-08-12T01:49:03.549Z,1020.46
2022-08-12T01:50:03.512Z,1020.47
2022-08-12T01:51:05.282Z,1020.43
2022-08-12T01:52:21.381Z,1020.48
2022-08-12T01:53:04.480Z,1020.43
2022-08-12T01:54:03.480Z,1020.48
2022-08-12T01:55:03.470Z,1020.47
2022-08-12T01:56:03.443Z,1020.54
2022-08-12T01:57:03.525Z,1020.50
2022-08-12T01:58:04.237Z,1020.42
2022-08-12T01:59:04.400Z,1020.46
2022-08-12T02:00:03.390Z,1020.41
2022-08-12T02:01:03.433Z,1020.43
2022-08-12T02:02:03.380Z,1020.45
2022-08-12T02:03:03.336Z,1020.47
2022-08-12T02:04:03.345Z,1020.44
2022-08-12T02:05:03.343Z,1020.45
2022-08-12T02:06:03.331Z,1020.51
2022-08-12T02:07:03.333Z,1020.44
2022-08-12T02:08:03.345Z,1020.47
2022-08-12T02:09:03.291Z,1020.45
2022-08-12T02:10:03.293Z,1020.43
2022-08-12T02:11:03.237Z,1020.44
2022-08-12T02:12:03.246Z,1020.44
2022-08-12T02:13:03.196Z,1020.42
2022-08-12T02:14:03.192Z,1020.43
2022-08-12T02:15:03.215Z,1020.51
2022-08-12T02:16:03.166Z,1020.43
2022-08-12T02:17:03.181Z,1020.45
2022-08-12T02:18:03.143Z,1020.42
2022-08-12T02:19:03.156Z,1020.46
2022-08-12T02:20:04.123Z,1020.40
2022-08-12T02:21:03.804Z,1020.43
2022-08-12T02:22:04.823Z,1020.40
2022-08-12T02:23:03.108Z,1020.43
2022-08-12T02:24:03.064Z,1020.44
2022-08-12T02:25:03.324Z,1020.47
2022-08-12T02:26:03.043Z,1020.40
2022-08-12T02:27:03.062Z,1020.42
2022-08-12T02:28:06.092Z,1020.43
2022-08-12T02:29:03.993Z,1020.40
2022-08-12T02:30:03.001Z,1020.42
2022-08-12T02:31:02.981Z,1020.37
2022-08-12T02:32:03.000Z,1020.35
2022-08-12T02:33:02.950Z,1020.37
2022-08-12T02:34:02.983Z,1020.33
2022-08-12T02:35:02.947Z,1020.37
2022-08-12T02:36:02.921Z,1020.42
2022-08-12T02:37:03.931Z,1020.32
2022-08-12T02:38:02.903Z,1020.37
2022-08-12T02:39:02.874Z,1020.44
2022-08-12T02:40:02.848Z,1020.41
2022-08-12T02:41:02.854Z,1020.39
2022-08-12T02:42:02.835Z,1020.37
2022-08-12T02:43:02.831Z,1020.37
2022-08-12T02:44:02.787Z,1020.34
2022-08-12T02:45:02.794Z,1020.33
2022-08-12T02:46:02.830Z,1020.26
2022-08-12T02:47:02.771Z,1020.26
2022-08-12T02:48:02.756Z,1020.37
2022-08-12T02:49:02.750Z,1020.35
2022-08-12T02:50:02.716Z,1020.33
2022-08-12T02:51:02.715Z,1020.30
2022-08-12T02:52:02.736Z,1020.28
2022-08-12T02:53:02.724Z,1020.25
2022-08-12T02:54:05.497Z,1020.29
2022-08-12T02:55:02.666Z,1020.29
2022-08-12T02:56:02.666Z,1020.30
2022-08-12T02:57:02.624Z,1020.25
2022-08-12T02:58:04.234Z,1020.33
2022-08-12T02:59:02.610Z,1020.26
2022-08-12T03:00:02.591Z,1020.28
2022-08-12T03:01:02.657Z,1020.30
2022-08-12T03:02:02.549Z,1020.27
2022-08-12T03:03:02.576Z,1020.24
2022-08-12T03:04:02.532Z,1020.28
2022-08-12T03:05:02.570Z,1020.28
2022-08-12T03:06:02.495Z,1020.23
2022-08-12T03:07:02.508Z,1020.24
2022-08-12T03:08:02.518Z,1020.25
2022-08-12T03:09:02.475Z,1020.23
2022-08-12T03:10:05.515Z,1020.23
2022-08-12T03:11:02.441Z,1020.21
2022-08-12T03:12:02.478Z,1020.23
2022-08-12T03:13:02.441Z,1020.16
2022-08-12T03:14:02.399Z,1020.22
2022-08-12T03:15:02.383Z,1020.16
2022-08-12T03:16:02.366Z,1020.20
2022-08-12T03:17:02.396Z,1020.15
2022-08-12T03:18:25.746Z,1020.17
2022-08-12T03:19:03.325Z,1020.17
2022-08-12T03:20:09.998Z,1020.17
2022-08-12T03:21:03.302Z,1020.19
2022-08-12T03:22:08.539Z,1020.21
2022-08-12T03:23:03.292Z,1020.16
2022-08-12T03:24:02.301Z,1020.13
2022-08-12T03:25:02.247Z,1020.11
2022-08-12T03:26:03.168Z,1020.08
2022-08-12T03:27:02.233Z,1020.16
2022-08-12T03:28:02.203Z,1020.13
2022-08-12T03:29:02.235Z,1020.10
2022-08-12T03:30:02.295Z,1020.11
2022-08-12T03:31:02.167Z,1020.13
2022-08-12T03:32:02.149Z,1020.14
2022-08-12T03:33:06.252Z,1020.13
2022-08-12T03:34:03.307Z,1020.11
2022-08-12T03:35:02.121Z,1020.13
2022-08-12T03:36:02.095Z,1020.10
2022-08-12T03:37:02.080Z,1020.15
2022-08-12T03:38:02.068Z,1020.09
2022-08-12T03:39:02.103Z,1020.02
2022-08-12T03:40:02.105Z,1020.14
2022-08-12T03:41:02.053Z,1020.01
2022-08-12T03:42:02.010Z,1020.06
2022-08-12T03:43:02.005Z,1020.03
2022-08-12T03:44:01.990Z,1020.06
2022-08-12T03:45:02.115Z,1020.07
2022-08-12T03:46:01.969Z,1020.10
2022-08-12T03:47:02.615Z,1020.10
2022-08-12T03:48:01.924Z,1020.08
2022-08-12T03:49:01.925Z,1020.06
2022-08-12T03:50:01.909Z,1020.05
2022-08-12T03:51:01.918Z,1020.10
2022-08-12T03:52:01.888Z,1020.06
2022-08-12T03:53:01.854Z,1020.10
2022-08-12T03:54:01.839Z,1020.05
2022-08-12T03:55:01.878Z,1020.06
2022-08-12T03:56:01.844Z,1020.08
2022-08-12T03:57:01.809Z,1020.07
2022-08-12T03:58:01.786Z,1020.01
2022-08-12T03:59:01.797Z,1020.05
2022-08-12T04:00:13.077Z,1020.04
2022-08-12T04:01:02.877Z,1020.08
2022-08-12T04:02:01.726Z,1020.07
2022-08-12T04:03:01.923Z,1020.08
2022-08-12T04:04:01.703Z,1020.10
2022-08-12T04:05:01.801Z,1020.14
2022-08-12T04:06:01.756Z,1020.08
2022-08-12T04:07:01.661Z,1020.08
2022-08-12T04:08:01.652Z,1020.07
2022-08-12T04:09:01.660Z,1020.09
2022-08-12T04:10:01.630Z,1020.11
2022-08-12T04:11:05.410Z,1020.10
2022-08-12T04:12:01.598Z,1020.14
2022-08-12T04:13:01.610Z,1020.12
2022-08-12T04:14:01.605Z,1020.13
2022-08-12T04:15:01.633Z,1020.15
2022-08-12T04:16:01.552Z,1020.13
2022-08-12T04:17:01.588Z,1020.18
2022-08-12T04:18:06.519Z,1020.15
2022-08-12T04:19:02.559Z,1020.12
2022-08-12T04:20:01.513Z,1020.13
2022-08-12T04:21:01.489Z,1020.11
2022-08-12T04:22:03.523Z,1020.07
2022-08-12T04:23:01.507Z,1020.11
2022-08-12T04:24:01.449Z,1020.16
2022-08-12T04:25:01.778Z,1020.07
2022-08-12T04:26:01.413Z,1020.12
2022-08-12T04:27:01.426Z,1020.10
2022-08-12T04:28:13.028Z,1020.09
2022-08-12T04:29:02.383Z,1020.11
2022-08-12T04:30:31.371Z,1020.06
2022-08-12T04:31:02.370Z,1020.09
2022-08-12T04:32:01.336Z,1020.07
2022-08-12T04:33:01.363Z,1020.13
2022-08-12T04:34:01.314Z,1020.12
2022-08-12T04:35:01.368Z,1020.12
2022-08-12T04:36:01.289Z,1020.07
2022-08-12T04:37:01.293Z,1020.10
2022-08-12T04:38:01.311Z,1020.09
2022-08-12T04:39:01.286Z,1020.11
2022-08-12T04:40:01.259Z,1020.07
2022-08-12T04:41:01.216Z,1020.07
2022-08-12T04:42:01.202Z,1020.06
2022-08-12T04:43:01.699Z,1020.14
2022-08-12T04:44:02.583Z,1020.07
2022-08-12T04:45:01.335Z,1020.08
2022-08-12T04:46:01.152Z,1020.14
2022-08-12T04:47:01.168Z,1020.10
2022-08-12T04:48:01.128Z,1020.10
2022-08-12T04:49:01.129Z,1020.09
2022-08-12T04:50:01.118Z,1020.10
2022-08-12T04:51:01.115Z,1020.11
2022-08-12T04:52:01.082Z,1020.07
2022-08-12T04:53:01.078Z,1020.12
2022-08-12T04:54:01.085Z,1020.17
2022-08-12T04:55:01.057Z,1020.15
2022-08-12T04:56:01.046Z,1020.10
2022-08-12T04:57:04.182Z,1020.13
2022-08-12T04:58:01.001Z,1020.07
2022-08-12T04:59:00.984Z,1020.10
2022-08-12T05:00:00.995Z,1020.11
2022-08-12T05:01:00.963Z,1020.13
2022-08-12T05:02:01.001Z,1020.09
2022-08-12T05:03:00.978Z,1020.16
2022-08-12T05:04:01.652Z,1020.09
2022-08-12T05:05:01.348Z,1020.13
2022-08-12T05:06:00.894Z,1020.07
2022-08-12T05:07:00.886Z,1020.11
2022-08-12T05:08:00.854Z,1020.12
2022-08-12T05:09:00.921Z,1020.06
2022-08-12T05:10:02.456Z,1020.06
2022-08-12T05:11:00.823Z,1020.10
2022-08-12T05:12:00.817Z,1020.08
2022-08-12T05:13:00.795Z,1020.03
2022-08-12T05:14:00.785Z,1020.10
2022-08-12T05:15:00.799Z,1020.09
2022-08-12T05:16:04.487Z,1020.07
2022-08-12T05:17:00.739Z,1020.04
2022-08-12T05:18:02.207Z,1020.06
2022-08-12T05:19:01.701Z,1020.02
2022-08-12T05:20:00.736Z,1020.09
2022-08-12T05:21:00.917Z,1020.07
2022-08-12T05:22:00.701Z,1020.05
2022-08-12T05:23:07.462Z,1020.07
2022-08-12T05:24:01.684Z,1020.07
2022-08-12T05:25:00.695Z,1020.10
2022-08-12T05:26:04.359Z,1020.09
2022-08-12T05:27:00.678Z,1020.14
2022-08-12T05:28:00.591Z,1020.16
2022-08-12T05:29:00.597Z,1020.18
2022-08-12T05:30:07.199Z,1020.15
2022-08-12T05:31:01.551Z,1020.13
2022-08-12T05:32:00.553Z,1020.09
2022-08-12T05:33:00.633Z,1020.18
2022-08-12T05:34:00.530Z,1020.15
2022-08-12T05:35:00.499Z,1020.08
2022-08-12T05:36:00.585Z,1020.10
2022-08-12T05:37:00.493Z,1020.15
2022-08-12T05:38:00.474Z,1020.14
2022-08-12T05:39:00.447Z,1020.14
2022-08-12T05:40:00.562Z,1020.13
2022-08-12T05:41:00.496Z,1020.11
2022-08-12T05:42:00.436Z,1020.17
2022-08-12T05:43:01.084Z,1020.14
2022-08-12T05:44:01.332Z,1020.16
2022-08-12T05:45:00.353Z,1020.13
2022-08-12T05:46:00.651Z,1020.15
2022-08-12T05:47:00.391Z,1020.21
2022-08-12T05:48:00.345Z,1020.21
2022-08-12T05:49:00.318Z,1020.22
2022-08-12T05:50:00.295Z,1020.15
2022-08-12T05:51:00.367Z,1020.18
2022-08-12T05:52:00.277Z,1020.17
2022-08-12T05:53:00.322Z,1020.20
2022-08-12T05:54:00.280Z,1020.21
2022-08-12T05:55:00.245Z,1020.20
2022-08-12T05:56:00.306Z,1020.20
2022-08-12T05:57:00.246Z,1020.21
2022-08-12T05:58:00.225Z,1020.06
2022-08-12T05:59:00.347Z,1020.18
2022-08-12T06:00:00.253Z,1020.16
2022-08-12T06:01:00.159Z,1020.18
2022-08-12T06:02:08.985Z,1020.18
2022-08-12T06:03:01.458Z,1020.10
2022-08-12T06:04:00.126Z,1020.19
2022-08-12T06:05:00.124Z,1020.17
2022-08-12T06:06:00.120Z,1020.17
2022-08-12T06:07:00.073Z,1020.15
2022-08-12T06:08:03.912Z,1020.18
2022-08-12T06:09:00.055Z,1020.17
2022-08-12T06:10:00.051Z,1020.16
2022-08-12T06:11:00.036Z,1020.18
2022-08-12T06:12:05.954Z,1020.19
2022-08-12T06:13:00.991Z,1020.21
2022-08-12T06:13:59.986Z,1020.21
2022-08-12T06:14:59.978Z,1020.23
2022-08-12T06:16:04.173Z,1020.17
2022-08-12T06:16:59.962Z,1020.17
2022-08-12T06:17:59.979Z,1020.15
2022-08-12T06:19:03.878Z,1020.17
2022-08-12T06:20:27.658Z,1020.18
2022-08-12T06:21:01.964Z,1020.19
2022-08-12T06:21:59.901Z,1020.20
2022-08-12T06:22:59.861Z,1020.22
2022-08-12T06:23:59.868Z,1020.25
2022-08-12T06:24:59.855Z,1020.33
2022-08-12T06:25:59.873Z,1020.34
2022-08-12T06:26:59.824Z,1020.29
2022-08-12T06:28:06.496Z,1020.28
2022-08-12T06:29:01.090Z,1020.30
2022-08-12T06:30:10.302Z,1020.37
2022-08-12T06:31:24.838Z,1020.35
2022-08-12T06:32:00.760Z,1020.33
2022-08-12T06:33:11.641Z,1020.30
2022-08-12T06:35:22.555Z,1020.37
2022-08-12T06:35:24.122Z,1020.33
2022-08-12T06:36:00.966Z,1020.33
2022-08-12T06:36:59.693Z,1020.35
2022-08-12T06:37:59.678Z,1020.33
2022-08-12T06:38:59.703Z,1020.32
2022-08-12T06:40:03.614Z,1020.32
2022-08-12T06:40:59.632Z,1020.34
2022-08-12T06:42:05.024Z,1020.28
2022-08-12T06:43:00.599Z,1020.30
2022-08-12T06:44:06.279Z,1020.31
2022-08-12T06:45:00.590Z,1020.31
2022-08-12T06:45:59.609Z,1020.32
2022-08-12T06:46:59.566Z,1020.32
2022-08-12T06:47:59.553Z,1020.30
2022-08-12T06:48:59.644Z,1020.30
2022-08-12T06:49:59.510Z,1020.32
2022-08-12T06:50:59.761Z,1020.29
2022-08-12T06:51:59.552Z,1020.29
2022-08-12T06:52:59.464Z,1020.32
2022-08-12T06:53:59.551Z,1020.27
2022-08-12T06:54:59.455Z,1020.31
2022-08-12T06:55:59.492Z,1020.32
2022-08-12T06:57:04.205Z,1020.33
2022-08-12T06:58:07.507Z,1020.32
2022-08-12T06:59:00.461Z,1020.33
2022-08-12T06:59:59.441Z,1020.31
2022-08-12T07:00:59.406Z,1020.30
2022-08-12T07:01:59.361Z,1020.25
2022-08-12T07:02:59.345Z,1020.26
2022-08-12T07:04:14.252Z,1020.32
2022-08-12T07:05:00.507Z,1020.32
2022-08-12T07:05:59.314Z,1020.33
2022-08-12T07:06:59.294Z,1020.32
2022-08-12T07:07:59.284Z,1020.28
2022-08-12T07:09:00.335Z,1020.31
2022-08-12T07:10:06.110Z,1020.31
2022-08-12T07:11:00.234Z,1020.36
2022-08-12T07:11:59.232Z,1020.26
2022-08-12T07:12:59.197Z,1020.29
2022-08-12T07:14:11.995Z,1020.28
2022-08-12T07:15:00.183Z,1020.31
2022-08-12T07:16:03.267Z,1020.30
2022-08-12T07:16:59.269Z,1020.34
2022-08-12T07:17:59.135Z,1020.29
2022-08-12T07:18:59.136Z,1020.27
2022-08-12T07:20:04.335Z,1020.34
2022-08-12T07:20:59.377Z,1020.37
2022-08-12T07:22:02.099Z,1020.35
2022-08-12T07:22:59.085Z,1020.35
2022-08-12T07:23:59.152Z,1020.34
2022-08-12T07:24:59.344Z,1020.28
2022-08-12T07:25:59.052Z,1020.24
2022-08-12T07:26:59.023Z,1020.27
2022-08-12T07:27:59.375Z,1020.27
2022-08-12T07:28:59.055Z,1020.32
2022-08-12T07:30:04.860Z,1020.25
2022-08-12T07:30:59.957Z,1020.32
2022-08-12T07:31:58.984Z,1020.28
2022-08-12T07:33:01.785Z,1020.25
2022-08-12T07:33:58.926Z,1020.27
2022-08-12T07:34:59.592Z,1020.27
2022-08-12T07:35:58.958Z,1020.32
2022-08-12T07:36:58.888Z,1020.29
2022-08-12T07:37:58.894Z,1020.27
2022-08-12T07:38:58.875Z,1020.30
2022-08-12T07:40:00.439Z,1020.37
2022-08-12T07:40:58.860Z,1020.29
2022-08-12T07:41:58.830Z,1020.29
2022-08-12T07:42:58.818Z,1020.28
2022-08-12T07:44:03.879Z,1020.30
2022-08-12T07:45:03.849Z,1020.31
2022-08-12T07:45:58.794Z,1020.31
2022-08-12T07:46:58.751Z,1020.32
2022-08-12T07:47:58.770Z,1020.34
2022-08-12T07:48:58.742Z,1020.28
2022-08-12T07:50:05.804Z,1020.31
2022-08-12T07:50:59.697Z,1020.35
2022-08-12T07:51:58.705Z,1020.30
2022-08-12T07:52:58.672Z,1020.31
2022-08-12T07:54:03.073Z,1020.29
2022-08-12T07:54:58.698Z,1020.28
2022-08-12T07:55:58.657Z,1020.34
2022-08-12T07:56:58.641Z,1020.33
2022-08-12T07:58:02.562Z,1020.36
2022-08-12T07:58:58.604Z,1020.37
2022-08-12T07:59:58.590Z,1020.41
2022-08-12T08:00:58.571Z,1020.33
2022-08-12T08:02:00.373Z,1020.36
2022-08-12T08:02:58.560Z,1020.42
2022-08-12T08:03:58.546Z,1020.34
2022-08-12T08:04:58.501Z,1020.33
2022-08-12T08:05:58.539Z,1020.40
2022-08-12T08:06:58.491Z,1020.39
2022-08-12T08:07:58.486Z,1020.38
2022-08-12T08:08:58.513Z,1020.34
2022-08-12T08:09:59.525Z,1020.39
2022-08-12T08:11:03.662Z,1020.37
2022-08-12T08:11:59.419Z,1020.36
2022-08-12T08:12:58.478Z,1020.34
2022-08-12T08:13:58.432Z,1020.35
2022-08-12T08:14:58.379Z,1020.42
2022-08-12T08:16:03.503Z,1020.41
2022-08-12T08:16:59.356Z,1020.36
2022-08-12T08:17:58.374Z,1020.42
2022-08-12T08:18:58.338Z,1020.30
2022-08-12T08:20:03.057Z,1020.38
2022-08-12T08:20:59.416Z,1020.37
2022-08-12T08:21:58.624Z,1020.34
2022-08-12T08:22:58.311Z,1020.39
2022-08-12T08:24:04.656Z,1020.29
2022-08-12T08:24:59.277Z,1020.37
2022-08-12T08:25:58.255Z,1020.34
2022-08-12T08:26:58.310Z,1020.34
2022-08-12T08:27:58.215Z,1020.34
2022-08-12T08:28:58.247Z,1020.35
2022-08-12T08:29:58.181Z,1020.30
2022-08-12T08:30:58.190Z,1020.33
2022-08-12T08:31:58.270Z,1020.37
2022-08-12T08:32:58.166Z,1020.33
2022-08-12T08:34:05.039Z,1020.34
2022-08-12T08:34:59.111Z,1020.30
2022-08-12T08:35:58.133Z,1020.30
2022-08-12T08:36:58.109Z,1020.31
2022-08-12T08:37:58.082Z,1020.34
2022-08-12T08:38:58.869Z,1020.36
2022-08-12T08:39:58.119Z,1020.37
2022-08-12T08:40:58.070Z,1020.28
2022-08-12T08:42:15.146Z,1020.30
2022-08-12T08:42:59.019Z,1020.35
2022-08-12T08:43:58.083Z,1020.40
2022-08-12T08:44:58.633Z,1020.28
2022-08-12T08:45:57.989Z,1020.35
2022-08-12T08:46:57.963Z,1020.30
2022-08-12T08:48:00.289Z,1020.30
2022-08-12T08:48:59.634Z,1020.34
2022-08-12T08:49:57.957Z,1020.28
2022-08-12T08:51:04.650Z,1020.31
2022-08-12T08:51:58.899Z,1020.31
2022-08-12T08:52:57.891Z,1020.32
2022-08-12T08:53:57.890Z,1020.27
2022-08-12T08:54:57.862Z,1020.28
2022-08-12T08:56:05.782Z,1020.30
2022-08-12T08:56:58.869Z,1020.26
2022-08-12T08:57:57.817Z,1020.30
2022-08-12T08:58:57.935Z,1020.22
2022-08-12T08:59:57.840Z,1020.27
2022-08-12T09:00:57.777Z,1020.28
2022-08-12T09:01:57.850Z,1020.25
2022-08-12T09:02:59.106Z,1020.27
2022-08-12T09:05:08.566Z,1020.29
2022-08-12T09:05:12.753Z,1020.28
2022-08-12T09:06:02.389Z,1020.20
2022-08-12T09:06:57.721Z,1020.20
2022-08-12T09:08:08.893Z,1020.21
2022-08-12T09:09:02.403Z,1020.24
2022-08-12T09:10:03.539Z,1020.25
2022-08-12T09:12:11.174Z,1020.22
2022-08-12T09:13:01.124Z,1020.11
2022-08-12T09:14:11.502Z,1020.12
2022-08-12T09:14:58.594Z,1020.17
2022-08-12T09:15:59.605Z,1020.18
2022-08-12T09:16:57.565Z,1020.21
2022-08-12T09:17:57.661Z,1020.18
2022-08-12T09:18:57.550Z,1020.20
2022-08-12T09:19:57.650Z,1020.15
2022-08-12T09:20:58.183Z,1020.17
2022-08-12T09:21:57.495Z,1020.19
2022-08-12T09:22:57.568Z,1020.13
2022-08-12T09:25:06.126Z,1020.17
2022-08-12T09:25:57.477Z,1020.14
2022-08-12T09:26:57.450Z,1020.17
2022-08-12T09:28:58.511Z,1020.13
2022-08-12T09:30:11.925Z,1020.16
2022-08-12T09:30:58.944Z,1020.12
2022-08-12T09:32:06.379Z,1020.08
2022-08-12T09:33:14.231Z,1020.10
2022-08-12T09:34:25.615Z,1020.07
2022-08-12T09:34:58.337Z,1020.09
2022-08-12T09:36:03.318Z,1019.98
2022-08-12T09:37:01.647Z,1020.07
2022-08-12T09:37:59.041Z,1020.05
2022-08-12T09:38:59.189Z,1020.05
2022-08-12T09:40:05.413Z,1020.01
2022-08-12T09:42:09.128Z,1019.97
2022-08-12T09:42:33.882Z,1020.03
2022-08-12T09:44:01.203Z,1020.05
2022-08-12T09:45:18.525Z,1020.11
2022-08-12T09:46:12.008Z,1020.06
2022-08-12T09:46:58.179Z,1019.97
2022-08-12T09:48:00.030Z,1019.98
2022-08-12T09:48:57.396Z,1020.02
2022-08-12T09:49:57.823Z,1020.03
2022-08-12T09:51:00.114Z,1020.05
2022-08-12T09:51:57.102Z,1019.99
2022-08-12T09:52:57.442Z,1019.96
2022-08-12T09:54:08.593Z,1019.88
2022-08-12T09:55:02.465Z,1019.81
2022-08-12T09:56:07.329Z,1019.92
2022-08-12T09:57:03.788Z,1019.88
2022-08-12T09:58:46.680Z,1019.87
2022-08-12T09:59:01.367Z,1019.83
2022-08-12T10:00:16.084Z,1019.86
2022-08-12T10:00:58.092Z,1019.84
2022-08-12T10:02:44.155Z,1019.87
2022-08-12T10:02:58.384Z,1019.84
2022-08-12T10:04:04.589Z,1019.76
2022-08-12T10:04:57.945Z,1019.84
2022-08-12T10:06:19.404Z,1019.73
2022-08-12T10:06:58.129Z,1019.79
2022-08-12T10:07:56.897Z,1019.79
2022-08-12T10:08:56.911Z,1019.80
2022-08-12T10:09:59.137Z,1019.78
2022-08-12T10:10:56.870Z,1019.73
2022-08-12T10:12:10.688Z,1019.73
2022-08-12T10:13:06.693Z,1019.77
2022-08-12T10:13:57.858Z,1019.71
2022-08-12T10:14:56.829Z,1019.66
2022-08-12T10:16:01.765Z,1019.65
2022-08-12T10:16:57.801Z,1019.69
2022-08-12T10:18:07.395Z,1019.69
2022-08-12T10:18:57.823Z,1019.63
2022-08-12T10:19:59.661Z,1019.63
2022-08-12T10:20:57.419Z,1019.60
2022-08-12T10:21:57.073Z,1019.59
2022-08-12T10:22:57.049Z,1019.55
2022-08-12T10:23:57.368Z,1019.59
2022-08-12T10:24:56.712Z,1019.62
2022-08-12T10:26:38.186Z,1019.63
2022-08-12T10:26:57.763Z,1019.57
2022-08-12T10:28:05.805Z,1019.57
2022-08-12T10:29:02.694Z,1019.47
2022-08-12T10:30:03.016Z,1019.48
2022-08-12T10:30:58.248Z,1019.51
2022-08-12T10:32:20.870Z,1019.43
2022-08-12T10:32:58.572Z,1019.46
2022-08-12T10:34:06.414Z,1019.43
2022-08-12T10:34:57.614Z,1019.36
2022-08-12T10:35:56.783Z,1019.36
2022-08-12T10:36:56.538Z,1019.32
2022-08-12T10:38:37.133Z,1019.40
2022-08-12T10:38:57.514Z,1019.41
2022-08-12T10:40:06.923Z,1019.40
2022-08-12T10:40:57.724Z,1019.34
2022-08-12T10:41:56.482Z,1019.31
2022-08-12T10:42:56.469Z,1019.33
2022-08-12T10:43:57.065Z,1019.28
2022-08-12T10:44:56.461Z,1019.30
2022-08-12T10:45:58.350Z,1019.26
2022-08-12T10:46:56.449Z,1019.20
2022-08-12T10:48:20.298Z,1019.21
2022-08-12T10:49:05.706Z,1019.28
2022-08-12T10:50:03.226Z,1019.24
2022-08-12T10:51:03.325Z,1019.21
2022-08-12T10:52:32.437Z,1019.19
2022-08-12T10:52:57.342Z,1019.25
2022-08-12T10:54:00.538Z,1019.26
2022-08-12T10:54:56.367Z,1019.16
2022-08-12T10:55:56.608Z,1019.14
2022-08-12T10:56:56.338Z,1019.15
2022-08-12T10:58:15.195Z,1019.19
2022-08-12T10:58:57.253Z,1019.17
2022-08-12T11:00:34.503Z,1019.07
2022-08-12T11:01:49.097Z,1019.13
2022-08-12T11:04:19.845Z,1019.14
2022-08-12T11:04:25.452Z,1019.07
2022-08-12T11:04:35.952Z,1019.16
2022-08-12T11:04:57.538Z,1019.05
2022-08-12T11:07:05.535Z,1019.04
2022-08-12T11:07:08.559Z,1019.09
2022-08-12T11:08:34.581Z,1019.04
2022-08-12T11:08:57.262Z,1019.03
2022-08-12T11:10:01.565Z,1019.06
2022-08-12T11:10:57.112Z,1019.04
2022-08-12T11:12:36.017Z,1019.02
2022-08-12T11:12:59.890Z,1019.05
2022-08-12T11:13:56.087Z,1019.01
2022-08-12T11:14:56.094Z,1018.96
2022-08-12T11:16:19.175Z,1018.93
2022-08-12T11:17:33.775Z,1018.94
2022-08-12T11:17:57.487Z,1018.90
2022-08-12T11:18:57.156Z,1018.93
2022-08-12T11:19:56.045Z,1018.89
2022-08-12T11:20:57.873Z,1018.85
2022-08-12T11:22:01.240Z,1018.86
2022-08-12T11:22:58.543Z,1018.89
2022-08-12T11:23:55.971Z,1018.83
2022-08-12T11:24:55.936Z,1018.83
2022-08-12T11:26:00.496Z,1018.85
2022-08-12T11:27:55.888Z,1018.91
2022-08-12T11:28:59.406Z,1018.76
2022-08-12T11:30:05.297Z,1018.78
2022-08-12T11:30:56.847Z,1018.80
2022-08-12T11:32:02.513Z,1018.74
2022-08-12T11:32:57.584Z,1018.72
2022-08-12T11:34:06.771Z,1018.76
2022-08-12T11:34:59.205Z,1018.68
2022-08-12T11:35:59.608Z,1018.73
2022-08-12T11:36:55.752Z,1018.78
2022-08-12T11:37:58.909Z,1018.67
2022-08-12T11:38:55.754Z,1018.64
2022-08-12T11:40:56.695Z,1018.61
2022-08-12T11:41:55.694Z,1018.65
2022-08-12T11:43:00.332Z,1018.54
2022-08-12T11:43:58.534Z,1018.57
2022-08-12T11:44:55.693Z,1018.60
2022-08-12T11:45:56.783Z,1018.63
2022-08-12T11:46:55.623Z,1018.55
2022-08-12T11:47:55.698Z,1018.54
2022-08-12T11:48:55.598Z,1018.59
2022-08-12T11:49:55.640Z,1018.59
2022-08-12T11:50:55.624Z,1018.62
2022-08-12T11:51:57.919Z,1018.56
2022-08-12T11:52:57.183Z,1018.57
2022-08-12T11:53:57.725Z,1018.50
2022-08-12T11:54:55.891Z,1018.57
2022-08-12T11:55:55.562Z,1018.53
2022-08-12T11:56:59.620Z,1018.52
2022-08-12T11:58:17.241Z,1018.54
2022-08-12T12:02:01.388Z,1018.45
2022-08-12T12:02:02.923Z,1018.48
2022-08-12T12:02:56.541Z,1018.43
2022-08-12T12:03:55.456Z,1018.46
2022-08-12T12:04:55.430Z,1018.42
2022-08-12T12:05:55.400Z,1018.47
2022-08-12T12:06:56.394Z,1018.41
2022-08-12T12:08:38.252Z,1018.41
2022-08-12T12:08:56.423Z,1018.41
2022-08-12T12:09:55.733Z,1018.42
2022-08-12T12:10:55.347Z,1018.44
2022-08-12T12:11:55.337Z,1018.45
2022-08-12T12:12:55.350Z,1018.46